Time;durP1;ratioP1;P1;durP2;ratioP2;P2;SDS_P1;SDS_P2;PMS_P1;PMS_P2;Temp;Humidity;BMP_temperature;BMP_pressure;BME280_temperature;BME280_humidity;BME280_pressure;Samples;Min_cycle;Max_cycle;Signal;HPM_P1;HPM_P2
2023/06/24 06:05:47;;;;;;;;;;;20.90;82.90;;;;;;6110478;23;20446;-96
2023/06/24 06:08:12;;;;;;;;;;;21.00;83.00;;;;;;6094611;23;19918;-88
2023/06/24 07:07:57;;;;;;;;;;;21.50;82.20;;;;;;6193859;23;19917;-95
2023/06/24 08:36:05;;;;;;;;;;;22.50;80.00;;;;;;6170441;23;19920;-95
2023/06/24 09:08:24;;;;;;;;;;;22.60;79.00;;;;;;5992507;24;19955;-96
2023/06/24 09:14:20;;;;;;;;;;;;;;;;;;;;;
2023/06/24 09:47:01;;;;;;;;;;;22.70;78.00;;;;;;6233656;23;19915;-96
2023/06/24 09:52:01;;;;;;;;;;;22.70;78.30;;;;;;6184815;23;19925;-87
2023/06/24 09:54:28;;;;;;;;;;;22.80;76.20;;;;;;6184358;23;19904;-89
2023/06/24 09:56:54;;;;;;;;;;;22.80;75.40;;;;;;6183634;23;19904;-87
2023/06/24 09:59:21;;;;;;;;;;;22.80;74.70;;;;;;6183331;23;19919;-88
2023/06/24 10:01:47;;;;;;;;;;;22.90;73.90;;;;;;6183114;23;19994;-88
2023/06/24 10:04:19;;;;;;;;;;;22.90;74.20;;;;;;6183290;23;19904;-87
2023/06/24 10:06:45;;;;;;;;;;;22.90;74.20;;;;;;6181969;23;19904;-89
2023/06/24 10:09:13;;;;;;;;;;;22.90;73.00;;;;;;6183674;23;20314;-89
2023/06/24 10:11:39;;;;;;;;;;;22.90;72.00;;;;;;6184507;23;20318;-88
2023/06/24 10:14:04;;;;;;;;;;;22.90;70.70;;;;;;6182887;23;19908;-88
2023/06/24 10:16:30;;;;;;;;;;;22.90;70.40;;;;;;6183508;23;19905;-88
2023/06/24 10:19:02;;;;;;;;;;;22.90;69.70;;;;;;6183912;23;19974;-87
2023/06/24 10:21:44;;;;;;;;;;;22.90;69.20;;;;;;6182677;23;19919;-88
2023/06/24 10:24:10;;;;;;;;;;;22.90;68.50;;;;;;6182163;23;20036;-88
2023/06/24 10:26:36;;;;;;;;;;;22.90;68.70;;;;;;6184588;23;19940;-88
2023/06/24 10:29:04;;;;;;;;;;;22.80;67.50;;;;;;6180302;23;19931;-87
2023/06/24 10:31:39;;;;;;;;;;;22.80;67.80;;;;;;6180662;23;19908;-89
2023/06/24 10:34:23;;;;;;;;;;;22.70;67.80;;;;;;6182520;23;19911;-89
2023/06/24 10:36:56;;;;;;;;;;;22.70;67.90;;;;;;6182993;23;19911;-88
2023/06/24 10:39:44;;;;;;;;;;;22.70;67.90;;;;;;6183755;23;19904;-87
2023/06/24 10:42:28;;;;;;;;;;;22.70;68.20;;;;;;6162837;23;20290;-89
2023/06/24 10:44:58;;;;;;;;;;;22.80;68.30;;;;;;6183050;23;19908;-89
2023/06/24 10:47:24;;;;;;;;;;;22.70;66.60;;;;;;6182971;23;19904;-86
2023/06/24 10:49:50;;;;;;;;;;;22.70;66.30;;;;;;6183694;23;19908;-87
2023/06/24 10:52:17;;;;;;;;;;;22.70;67.00;;;;;;6183044;23;20303;-87
2023/06/24 10:54:43;;;;;;;;;;;22.70;66.40;;;;;;6181800;23;19909;-86
2023/06/24 10:57:10;;;;;;;;;;;22.70;66.30;;;;;;6183521;23;19923;-86
2023/06/24 10:59:39;;;;;;;;;;;22.60;65.30;;;;;;6180574;23;19904;-86
2023/06/24 11:02:04;;;;;;;;;;;22.60;65.40;;;;;;6181420;23;19916;-87
2023/06/24 11:04:30;;;;;;;;;;;22.60;64.20;;;;;;6183666;23;19975;-86
2023/06/24 11:06:59;;;;;;;;;;;22.60;63.80;;;;;;6182494;23;19931;-88
2023/06/24 11:09:25;;;;;;;;;;;22.60;63.50;;;;;;6181674;23;19912;-87
2023/06/24 11:11:50;;;;;;;;;;;22.60;63.40;;;;;;6183218;23;19911;-87
2023/06/24 11:14:16;;;;;;;;;;;22.60;63.00;;;;;;6181853;23;19959;-87
2023/06/24 11:16:42;;;;;;;;;;;22.50;63.50;;;;;;6184089;23;19904;-88
2023/06/24 11:19:08;;;;;;;;;;;22.50;64.60;;;;;;6183521;23;19904;-87
2023/06/24 11:21:33;;;;;;;;;;;22.50;63.90;;;;;;6181482;23;20326;-87
2023/06/24 11:24:03;;;;;;;;;;;22.50;63.90;;;;;;6181882;23;19916;-88
2023/06/24 11:26:29;;;;;;;;;;;22.50;63.10;;;;;;6181598;23;19927;-86
2023/06/24 11:28:54;;;;;;;;;;;22.50;62.80;;;;;;6184238;23;20326;-88
2023/06/24 11:31:25;;;;;;;;;;;22.50;62.40;;;;;;6181900;23;19991;-86
2023/06/24 11:33:50;;;;;;;;;;;22.50;62.10;;;;;;6182643;23;20281;-87
2023/06/24 11:36:17;;;;;;;;;;;22.40;61.40;;;;;;6181475;23;19984;-86
2023/06/24 11:38:43;;;;;;;;;;;22.40;61.60;;;;;;6183939;23;19912;-88
2023/06/24 11:41:08;;;;;;;;;;;22.40;61.60;;;;;;6181391;23;19904;-88
2023/06/24 11:43:34;;;;;;;;;;;22.40;63.50;;;;;;6183592;23;19958;-87
2023/06/24 11:45:59;;;;;;;;;;;22.40;63.10;;;;;;6183465;23;19909;-89
2023/06/24 11:48:28;;;;;;;;;;;22.40;62.60;;;;;;6183500;23;19912;-86
2023/06/24 11:54:05;;;;;;;;;;;22.40;63.30;;;;;;6191821;23;19931;-86
2023/06/24 11:56:37;;;;;;;;;;;22.40;64.40;;;;;;6157009;23;20327;-87
2023/06/24 11:59:06;;;;;;;;;;;22.40;63.60;;;;;;6157284;23;20310;-87
2023/06/24 12:01:32;;;;;;;;;;;22.40;63.70;;;;;;6183094;23;19953;-88
2023/06/24 12:03:59;;;;;;;;;;;22.40;63.20;;;;;;6156615;23;19940;-86
2023/06/24 12:06:25;;;;;;;;;;;22.40;62.70;;;;;;6156701;23;20211;-85
2023/06/24 12:08:50;;;;;;;;;;;22.30;63.00;;;;;;6158325;23;19914;-89
2023/06/24 12:11:19;;;;;;;;;;;22.40;62.20;;;;;;6156183;23;19908;-87
2023/06/24 12:13:44;;;;;;;;;;;22.40;62.70;;;;;;6182744;23;20385;-90
2023/06/24 12:16:10;;;;;;;;;;;22.40;63.10;;;;;;6182997;23;19904;-88
2023/06/24 12:18:35;;;;;;;;;;;22.40;64.00;;;;;;6182725;23;19955;-90
2023/06/24 12:21:01;;;;;;;;;;;22.30;62.20;;;;;;6156605;23;19927;-88
2023/06/24 12:23:26;;;;;;;;;;;22.40;62.10;;;;;;6182982;23;19983;-88
2023/06/24 12:25:52;;;;;;;;;;;22.30;62.50;;;;;;6183270;23;20234;-90
2023/06/24 12:28:17;;;;;;;;;;;22.30;62.20;;;;;;6156914;23;19904;-89
2023/06/24 12:30:43;;;;;;;;;;;22.30;62.00;;;;;;6183821;23;19908;-90
2023/06/24 12:33:08;;;;;;;;;;;22.40;62.40;;;;;;6157833;23;20223;-89
2023/06/24 12:35:34;;;;;;;;;;;22.30;62.50;;;;;;6157177;23;19908;-90
2023/06/24 12:37:59;;;;;;;;;;;22.30;62.40;;;;;;6183614;23;19905;-90
2023/06/24 12:40:25;;;;;;;;;;;22.30;61.50;;;;;;6183416;23;19935;-90
2023/06/24 12:42:50;;;;;;;;;;;22.30;62.00;;;;;;6183891;23;19944;-90
2023/06/24 12:45:16;;;;;;;;;;;22.30;62.30;;;;;;6157922;23;19916;-91
2023/06/24 12:47:42;;;;;;;;;;;22.30;62.10;;;;;;6157779;23;19908;-91
2023/06/24 12:50:07;;;;;;;;;;;22.30;61.80;;;;;;6184165;23;19904;-91
2023/06/24 12:52:33;;;;;;;;;;;22.30;61.90;;;;;;6157153;23;19904;-91
2023/06/24 12:54:59;;;;;;;;;;;22.30;62.50;;;;;;6152358;23;19927;-92
2023/06/24 12:57:24;;;;;;;;;;;22.30;62.50;;;;;;6152930;23;19987;-91
2023/06/24 12:59:50;;;;;;;;;;;22.30;62.30;;;;;;6153436;23;19904;-90
2023/06/24 13:02:15;;;;;;;;;;;22.30;61.90;;;;;;6153645;23;19912;-91
2023/06/24 13:04:41;;;;;;;;;;;22.30;62.50;;;;;;6155091;23;19905;-93
2023/06/24 13:07:09;;;;;;;;;;;22.20;63.30;;;;;;6153946;23;19916;-91
2023/06/24 13:09:36;;;;;;;;;;;22.30;63.80;;;;;;6151318;23;19928;-91
2023/06/24 13:12:01;;;;;;;;;;;22.30;63.90;;;;;;6153968;23;19908;-90
2023/06/24 13:14:28;;;;;;;;;;;22.30;63.30;;;;;;6153680;23;20374;-92
2023/06/24 13:16:54;;;;;;;;;;;22.30;62.70;;;;;;6152354;23;20281;-91
2023/06/24 13:19:19;;;;;;;;;;;22.20;62.80;;;;;;6153175;23;19958;-90
2023/06/24 13:21:45;;;;;;;;;;;22.20;63.30;;;;;;6151929;23;20025;-89
2023/06/24 13:24:12;;;;;;;;;;;22.30;63.90;;;;;;6152969;23;19916;-90
2023/06/24 13:26:38;;;;;;;;;;;22.30;63.30;;;;;;6154275;23;20469;-91
2023/06/24 13:29:03;;;;;;;;;;;22.30;63.40;;;;;;6154963;23;19904;-91
2023/06/24 13:31:29;;;;;;;;;;;22.30;63.10;;;;;;6154558;23;19908;-91
2023/06/24 13:33:54;;;;;;;;;;;22.20;63.50;;;;;;6154308;23;19983;-92
2023/06/24 13:36:32;;;;;;;;;;;22.30;63.60;;;;;;6154176;23;19908;-91
2023/06/24 13:38:57;;;;;;;;;;;22.20;63.80;;;;;;6153618;23;19912;-90
2023/06/24 13:41:23;;;;;;;;;;;22.20;62.80;;;;;;6154129;23;19919;-95
2023/06/24 13:43:48;;;;;;;;;;;22.20;62.50;;;;;;6154163;23;19979;-90
2023/06/24 13:46:14;;;;;;;;;;;22.20;63.50;;;;;;6154886;23;19955;-93
2023/06/24 13:48:39;;;;;;;;;;;22.20;63.30;;;;;;6154532;23;19944;-90
2023/06/24 13:51:06;;;;;;;;;;;22.20;63.10;;;;;;6155312;23;20337;-92
2023/06/24 13:53:32;;;;;;;;;;;22.20;63.60;;;;;;6153773;23;19908;-90
2023/06/24 13:55:57;;;;;;;;;;;22.20;63.60;;;;;;6154302;23;19983;-90
2023/06/24 13:58:23;;;;;;;;;;;22.20;63.30;;;;;;6154196;23;20510;-92
2023/06/24 14:00:48;;;;;;;;;;;22.20;63.90;;;;;;6154188;23;20315;-90
2023/06/24 14:03:14;;;;;;;;;;;22.20;62.60;;;;;;6154427;23;19951;-91
2023/06/24 14:05:39;;;;;;;;;;;22.20;62.60;;;;;;6153932;23;19905;-90
2023/06/24 14:08:05;;;;;;;;;;;22.20;63.00;;;;;;6154768;23;19912;-93
2023/06/24 14:10:30;;;;;;;;;;;22.20;63.00;;;;;;6154235;23;20310;-91
2023/06/24 14:12:56;;;;;;;;;;;22.20;62.60;;;;;;6154906;23;19987;-90
2023/06/24 14:15:22;;;;;;;;;;;22.20;63.10;;;;;;6155688;23;20397;-90
2023/06/24 14:17:47;;;;;;;;;;;22.20;64.00;;;;;;6150228;23;19905;-91
2023/06/24 14:20:13;;;;;;;;;;;22.20;63.70;;;;;;6154584;23;19963;-89
2023/06/24 14:22:38;;;;;;;;;;;22.30;63.80;;;;;;6156200;23;19919;-89
2023/06/24 14:25:04;;;;;;;;;;;22.20;63.60;;;;;;6156189;23;19904;-91
2023/06/24 14:27:30;;;;;;;;;;;22.30;64.70;;;;;;6155058;23;19927;-90
2023/06/24 14:29:55;;;;;;;;;;;22.20;64.40;;;;;;6154067;23;19911;-91
2023/06/24 14:32:21;;;;;;;;;;;22.20;64.00;;;;;;6154566;23;19905;-91
2023/06/24 15:01:10;;;;;;;6.15;3.63;;;22.20;63.20;;;;;;5145299;27;20430;-95
2023/06/24 15:03:35;;;;;;;6.05;3.47;;;22.50;63.30;;;;;;5134910;27;20032;-93
2023/06/24 15:06:01;;;;;;;7.97;3.92;;;22.20;63.20;;;;;;5141599;27;20019;-95
2023/06/24 15:08:27;;;;;;;5.45;3.15;;;22.40;62.90;;;;;;5138573;27;20046;-92
2023/06/24 15:10:53;;;;;;;3.65;3.00;;;22.20;62.60;;;;;;5138190;27;20018;-91
2023/06/24 15:13:18;;;;;;;5.18;3.40;;;22.20;62.40;;;;;;5147160;27;20016;-94
2023/06/24 15:15:44;;;;;;;8.02;3.72;;;22.20;62.30;;;;;;5129576;27;20026;-93
2023/06/24 15:18:10;;;;;;;7.45;4.22;;;22.30;62.40;;;;;;5131241;27;20023;-94
2023/06/24 15:20:36;;;;;;;4.45;3.15;;;22.20;62.10;;;;;;5137025;27;20187;-94
2023/06/24 15:23:02;;;;;;;8.85;3.65;;;22.10;61.90;;;;;;5132657;27;20019;-93
2023/06/24 15:25:28;;;;;;;5.85;3.25;;;22.10;62.10;;;;;;5140814;27;20399;-96
2023/06/24 15:27:53;;;;;;;6.15;3.17;;;22.20;62.10;;;;;;5131802;27;20031;-93
2023/06/24 15:30:19;;;;;;;6.97;3.50;;;22.20;62.40;;;;;;5133431;27;20141;-93
2023/06/24 15:32:47;;;;;;;5.38;3.28;;;22.20;62.40;;;;;;5131799;27;20467;-95
2023/06/24 15:35:13;;;;;;;5.68;3.42;;;22.20;62.50;;;;;;5134885;27;20080;-94
2023/06/24 15:37:39;;;;;;;6.30;2.67;;;22.20;62.40;;;;;;5131299;27;20031;-95
2023/06/24 15:40:11;;;;;;;6.70;3.28;;;22.20;62.10;;;;;;5140478;27;20030;-96
2023/06/24 15:42:37;;;;;;;4.45;2.95;;;22.20;62.40;;;;;;5127263;27;20124;-95
2023/06/24 15:45:04;;;;;;;5.50;2.95;;;22.20;62.10;;;;;;5135830;27;20042;-95
2023/06/24 15:47:30;;;;;;;7.53;3.90;;;22.20;61.90;;;;;;5139844;27;20087;-96
2023/06/24 15:49:56;;;;;;;5.55;3.13;;;22.10;62.00;;;;;;5134540;27;20135;-95
2023/06/24 15:52:42;;;;;;;5.57;3.00;;;22.20;62.00;;;;;;5136969;27;20050;-94
2023/06/24 15:55:43;;;;;;;5.85;3.17;;;22.20;61.90;;;;;;5146764;27;20019;-96
2023/06/24 15:58:09;;;;;;;6.60;3.08;;;22.10;61.60;;;;;;5119261;27;20042;-90
2023/06/24 16:00:48;;;;;;;3.75;3.30;;;22.10;61.80;;;;;;5135477;27;20031;-92
2023/06/24 16:03:14;;;;;;;7.60;3.25;;;22.10;61.80;;;;;;5139598;27;20032;-90
2023/06/24 16:07:14;;;;;;;4.88;3.42;;;23.50;62.60;;;;;;5144295;27;20422;-94
2023/06/24 16:10:19;;;;;;;8.48;3.10;;;22.40;60.70;;;;;;5111745;27;20061;-94
2023/06/24 16:12:54;;;;;;;5.68;3.47;;;22.20;60.50;;;;;;5055018;28;20029;-96
2023/06/24 16:15:20;;;;;;;5.22;2.90;;;22.20;60.40;;;;;;5052587;28;20024;-96
2023/06/24 16:17:49;;;;;;;3.92;2.72;;;22.40;59.90;;;;;;5051045;28;20827;-96
2023/06/24 16:20:16;;;;;;;7.10;3.95;;;22.40;59.70;;;;;;5069962;28;20017;-93
2023/06/24 16:22:45;;;;;;;8.90;3.75;;;22.40;59.70;;;;;;5055426;28;20028;-92
2023/06/24 16:25:12;;;;;;;4.50;2.92;;;22.20;60.10;;;;;;5050119;28;20044;-93
2023/06/24 16:27:40;;;;;;;5.90;3.13;;;22.20;60.30;;;;;;5050237;28;20017;-90
2023/06/24 16:30:12;;;;;;;6.60;3.40;;;22.20;60.30;;;;;;5052690;28;20033;-95
2023/06/24 16:32:40;;;;;;;8.25;4.25;;;22.20;60.20;;;;;;5050666;28;20018;-94
2023/06/24 16:35:30;;;;;;;5.40;3.70;;;22.20;59.80;;;;;;5066822;28;20036;-96
2023/06/24 16:37:59;;;;;;;6.65;3.28;;;22.10;59.90;;;;;;5048427;28;20043;-94
2023/06/24 16:40:25;;;;;;;7.20;4.13;;;22.10;59.80;;;;;;5058653;28;20518;-95
2023/06/24 16:42:51;;;;;;;8.20;3.67;;;22.20;59.80;;;;;;5077684;28;20035;-92
2023/06/24 16:45:36;;;;;;;3.38;2.78;;;22.20;59.50;;;;;;5111214;28;20028;-93
2023/06/24 16:48:02;;;;;;;4.00;2.88;;;22.20;59.30;;;;;;5109258;28;20467;-95
2023/06/24 16:50:27;;;;;;;4.85;3.38;;;22.10;59.00;;;;;;5112545;27;20023;-95
2023/06/24 16:52:53;;;;;;;6.38;3.80;;;22.20;59.30;;;;;;5114050;28;20041;-94
2023/06/24 16:55:19;;;;;;;5.05;2.95;;;22.20;59.30;;;;;;5130554;27;20043;-95
2023/06/24 16:57:47;;;;;;;6.07;3.72;;;22.10;59.60;;;;;;5111881;28;20027;-96
2023/06/24 17:04:15;;;;;;;13.10;4.95;;;22.10;59.40;;;;;;5037689;28;20037;-96
2023/06/24 17:07:02;;;;;;;6.57;3.60;;;22.00;59.00;;;;;;5018775;28;20030;-92
2023/06/24 17:09:43;;;;;;;8.60;3.28;;;22.10;59.60;;;;;;5033632;28;20080;-93
2023/06/24 17:12:38;;;;;;;8.43;3.72;;;22.00;59.10;;;;;;5038023;28;20025;-96
2023/06/24 17:15:05;;;;;;;6.22;2.95;;;22.00;59.50;;;;;;5016311;28;20040;-93
2023/06/24 17:17:41;;;;;;;8.57;3.35;;;22.00;59.30;;;;;;5006045;28;20505;-96
2023/06/24 17:20:07;;;;;;;5.03;3.55;;;22.00;59.00;;;;;;5006212;28;20021;-94
2023/06/24 17:22:33;;;;;;;3.95;2.75;;;22.00;58.80;;;;;;4997922;28;20549;-91
2023/06/24 17:24:58;;;;;;;4.72;3.40;;;22.00;58.50;;;;;;5014696;28;20025;-93
2023/06/24 17:27:27;;;;;;;8.20;3.88;;;22.00;58.70;;;;;;5015302;28;20026;-92
2023/06/24 17:29:56;;;;;;;5.22;2.75;;;22.00;58.30;;;;;;5013754;28;20028;-94
2023/06/24 17:32:22;;;;;;;31.60;12.27;;;22.00;58.70;;;;;;4997903;28;20072;-91
2023/06/24 17:34:48;;;;;;;25.05;10.20;;;22.00;58.60;;;;;;5055141;28;20528;-91
2023/06/24 17:37:14;;;;;;;14.85;6.40;;;21.90;59.00;;;;;;5097007;28;20024;-90
2023/06/24 17:39:39;;;;;;;23.67;9.30;;;22.00;59.10;;;;;;5096251;28;20024;-93
2023/06/24 17:42:05;;;;;;;7.05;4.03;;;21.90;58.60;;;;;;5096674;28;20024;-93
2023/06/24 17:44:31;;;;;;;8.65;4.25;;;21.90;58.40;;;;;;5096731;28;20055;-93
2023/06/24 17:46:56;;;;;;;7.68;3.80;;;21.90;58.30;;;;;;5098424;28;20012;-94
2023/06/24 17:49:22;;;;;;;14.95;7.05;;;21.90;58.40;;;;;;5093590;28;20019;-94
2023/06/24 17:51:47;;;;;;;13.75;6.70;;;21.90;58.20;;;;;;5092497;28;20414;-94
2023/06/24 17:54:13;;;;;;;9.27;4.32;;;21.90;58.50;;;;;;5092192;28;20024;-91
2023/06/24 17:56:39;;;;;;;11.20;6.07;;;21.90;58.40;;;;;;5097465;27;20019;-91
2023/06/24 17:59:07;;;;;;;6.95;4.20;;;21.90;58.30;;;;;;5097674;28;20360;-92
2023/06/24 18:01:32;;;;;;;7.43;4.32;;;21.80;58.50;;;;;;5094836;28;20031;-92
2023/06/24 18:03:58;;;;;;;17.73;7.30;;;21.90;58.20;;;;;;5095648;28;20068;-92
2023/06/24 18:06:24;;;;;;;25.60;12.70;;;21.80;58.70;;;;;;5091392;28;20019;-89
2023/06/24 18:08:50;;;;;;;50.80;20.48;;;21.80;59.00;;;;;;5095533;28;20367;-90
2023/06/24 18:11:16;;;;;;;47.47;19.15;;;21.80;59.00;;;;;;5095671;28;20118;-90
2023/06/24 18:13:42;;;;;;;8.20;4.15;;;21.80;59.10;;;;;;5095904;28;20015;-90
2023/06/24 18:16:07;;;;;;;5.97;3.00;;;21.80;58.60;;;;;;5095962;28;20047;-90
2023/06/24 18:18:33;;;;;;;6.05;3.47;;;21.80;59.10;;;;;;5095844;28;20020;-90
2023/06/24 18:20:59;;;;;;;5.63;3.22;;;21.80;59.10;;;;;;5094355;28;20030;-92
2023/06/24 18:23:24;;;;;;;12.60;4.07;;;21.80;59.10;;;;;;5077952;28;20435;-93
2023/06/24 18:25:50;;;;;;;5.50;3.75;;;21.70;59.20;;;;;;5095118;28;20102;-92
2023/06/24 18:28:16;;;;;;;5.50;3.28;;;21.70;59.20;;;;;;5094052;28;20035;-93
2023/06/24 18:30:41;;;;;;;5.15;3.25;;;21.80;59.20;;;;;;5094647;28;20015;-94
2023/06/24 18:33:07;;;;;;;5.32;2.90;;;21.70;59.80;;;;;;5096247;28;20015;-95
2023/06/24 18:35:33;;;;;;;4.68;3.22;;;21.70;59.30;;;;;;5089834;28;20081;-93
2023/06/24 18:37:58;;;;;;;4.88;3.42;;;21.70;59.70;;;;;;5095374;28;20019;-93
2023/06/24 18:40:25;;;;;;;7.47;4.15;;;21.60;59.40;;;;;;5088071;28;20106;-93
2023/06/24 18:42:51;;;;;;;15.98;7.93;;;21.70;59.70;;;;;;5095494;28;20438;-93
2023/06/24 18:45:17;;;;;;;11.10;5.00;;;21.70;59.50;;;;;;5093842;28;20118;-91
2023/06/24 18:47:43;;;;;;;8.32;4.80;;;21.70;60.00;;;;;;5091341;28;20023;-93
2023/06/24 18:50:09;;;;;;;7.90;5.07;;;21.60;61.20;;;;;;5094476;28;20020;-90
2023/06/24 18:52:35;;;;;;;6.78;4.20;;;21.60;61.80;;;;;;5102349;28;20016;-90
2023/06/24 18:55:02;;;;;;;5.93;4.05;;;21.60;61.20;;;;;;5094453;28;20120;-93
2023/06/24 18:57:27;;;;;;;7.15;3.80;;;21.60;61.70;;;;;;5092522;28;20035;-90
2023/06/24 18:59:53;;;;;;;6.72;3.83;;;21.50;62.10;;;;;;5094684;28;20019;-91
2023/06/24 19:02:19;;;;;;;8.45;4.43;;;21.50;62.70;;;;;;5093711;28;20027;-91
2023/06/24 19:04:45;;;;;;;7.13;4.55;;;21.50;63.10;;;;;;5112839;28;20030;-92
2023/06/24 19:07:10;;;;;;;7.07;4.95;;;21.50;64.30;;;;;;5092775;28;20131;-90
2023/06/24 19:09:36;;;;;;;11.60;5.20;;;21.40;65.50;;;;;;5091335;27;20035;-92
2023/06/24 19:12:01;;;;;;;9.93;5.40;;;21.40;66.00;;;;;;5096346;28;20058;-92
2023/06/24 19:14:28;;;;;;;11.00;5.93;;;21.40;65.70;;;;;;5094787;28;20023;-93
2023/06/24 19:16:53;;;;;;;12.73;5.13;;;21.40;66.20;;;;;;5095639;27;20023;-92
2023/06/24 19:19:19;;;;;;;14.02;5.32;;;21.40;65.80;;;;;;5092266;28;20115;-92
2023/06/24 19:21:45;;;;;;;8.90;3.97;;;21.40;66.20;;;;;;5096601;28;20019;-92
2023/06/24 19:24:10;;;;;;;6.63;4.20;;;21.30;65.10;;;;;;5092926;28;20027;-96
2023/06/24 19:26:36;;;;;;;5.88;3.75;;;21.30;65.50;;;;;;5100288;28;20016;-96
2023/06/24 19:29:01;;;;;;;5.68;3.47;;;21.30;65.60;;;;;;5100427;28;20118;-96
2023/06/24 19:31:27;;;;;;;7.72;3.67;;;21.30;65.30;;;;;;5119283;28;20055;-95
2023/06/24 19:33:53;;;;;;;6.38;3.55;;;21.30;65.50;;;;;;5114831;28;20023;-90
2023/06/24 19:36:19;;;;;;;8.05;3.67;;;21.20;66.40;;;;;;5094298;28;20015;-90
2023/06/24 19:38:44;;;;;;;6.50;3.60;;;21.30;66.20;;;;;;5092799;28;20079;-90
2023/06/24 19:41:10;;;;;;;7.03;3.88;;;21.30;66.00;;;;;;5085803;28;20024;-89
2023/06/24 19:43:39;;;;;;;11.38;3.63;;;21.30;66.20;;;;;;5089337;28;20020;-90
2023/06/24 19:46:12;;;;;;;5.60;3.15;;;21.40;66.40;;;;;;5091057;28;20031;-94
2023/06/24 19:48:38;;;;;;;6.40;4.00;;;21.40;66.70;;;;;;5090654;28;20043;-89
2023/06/24 19:51:03;;;;;;;7.25;3.83;;;21.40;66.90;;;;;;5090641;28;20055;-89
2023/06/24 19:53:29;;;;;;;6.30;3.67;;;21.30;67.20;;;;;;5093609;28;20528;-91
2023/06/24 19:55:55;;;;;;;7.95;4.20;;;21.40;67.70;;;;;;5094005;28;20139;-90
2023/06/24 19:58:20;;;;;;;5.50;3.90;;;21.40;68.10;;;;;;5086919;28;20031;-90
2023/06/24 20:00:46;;;;;;;6.93;3.78;;;21.30;68.10;;;;;;5094154;28;20549;-91
2023/06/24 20:03:20;;;;;;;6.63;3.67;;;21.30;68.40;;;;;;5112849;28;20019;-90
2023/06/24 20:05:46;;;;;;;11.80;3.67;;;21.30;68.50;;;;;;5092888;28;20056;-91
2023/06/24 20:08:12;;;;;;;5.35;3.55;;;21.30;68.60;;;;;;5087485;28;20028;-91
2023/06/24 20:10:37;;;;;;;6.15;3.55;;;21.30;68.60;;;;;;5092197;28;20035;-90
2023/06/24 20:13:03;;;;;;;4.57;3.10;;;21.30;68.90;;;;;;5096116;28;20035;-91
2023/06/24 20:15:35;;;;;;;7.00;3.95;;;21.30;69.10;;;;;;5111567;28;20016;-91
2023/06/24 20:18:00;;;;;;;7.65;4.20;;;21.30;69.20;;;;;;5085738;28;20035;-90
2023/06/24 20:20:26;;;;;;;9.93;4.10;;;21.30;69.30;;;;;;5089828;28;20028;-90
2023/06/24 20:22:51;;;;;;;7.07;4.35;;;21.30;69.30;;;;;;5089454;28;20073;-91
2023/06/24 20:25:17;;;;;;;7.22;4.15;;;21.30;69.40;;;;;;5088610;28;20026;-91
2023/06/24 20:27:43;;;;;;;6.63;4.13;;;21.30;69.60;;;;;;5091989;28;20024;-91
2023/06/24 20:30:09;;;;;;;7.80;3.97;;;21.30;69.70;;;;;;5087069;28;20505;-92
2023/06/24 20:32:35;;;;;;;6.50;3.90;;;21.20;69.70;;;;;;5084927;28;20039;-91
2023/06/24 20:35:00;;;;;;;10.07;4.60;;;21.20;69.80;;;;;;5085418;28;20073;-90
2023/06/24 20:37:26;;;;;;;8.77;4.18;;;21.30;69.80;;;;;;5087550;28;20043;-90
2023/06/24 20:39:52;;;;;;;8.95;3.95;;;21.30;70.10;;;;;;5092448;28;20032;-90
2023/06/24 20:42:17;;;;;;;9.43;4.97;;;21.20;70.20;;;;;;5091217;28;20030;-91
2023/06/24 20:44:46;;;;;;;6.28;4.05;;;21.20;70.40;;;;;;5083740;28;20024;-91
2023/06/24 20:47:12;;;;;;;7.75;5.00;;;21.20;70.60;;;;;;5089783;28;20078;-88
2023/06/24 20:49:38;;;;;;;9.10;5.15;;;21.20;70.80;;;;;;5091909;28;20725;-90
2023/06/24 20:52:03;;;;;;;11.50;5.20;;;21.20;71.00;;;;;;5095856;28;20463;-91
2023/06/24 20:54:31;;;;;;;13.52;4.82;;;21.20;71.10;;;;;;5097394;28;20111;-91
2023/06/24 20:56:57;;;;;;;8.20;3.97;;;21.20;71.30;;;;;;5096692;28;20114;-91
2023/06/24 20:59:22;;;;;;;7.90;4.20;;;21.20;71.40;;;;;;5115762;28;20290;-91
2023/06/24 21:01:48;;;;;;;8.65;4.30;;;21.20;71.50;;;;;;5092260;28;20023;-91
2023/06/24 21:04:14;;;;;;;8.15;4.00;;;21.20;71.60;;;;;;5096355;28;20057;-91
2023/06/24 21:06:41;;;;;;;12.00;3.80;;;21.20;71.70;;;;;;5117808;27;20518;-92
2023/06/24 21:09:07;;;;;;;9.25;4.88;;;21.20;71.80;;;;;;5100779;28;20022;-91
2023/06/24 21:11:32;;;;;;;6.95;5.00;;;21.10;71.80;;;;;;5096340;28;20099;-90
2023/06/24 21:13:58;;;;;;;7.97;5.03;;;21.10;71.90;;;;;;5114565;28;20020;-91
2023/06/24 21:16:24;;;;;;;9.23;4.70;;;21.10;72.00;;;;;;5096788;28;20023;-91
2023/06/24 21:18:49;;;;;;;10.15;4.43;;;21.10;72.10;;;;;;5096580;28;20028;-91
2023/06/24 21:21:16;;;;;;;10.57;5.15;;;21.10;72.20;;;;;;5097049;28;20415;-91
2023/06/24 21:23:42;;;;;;;7.38;4.90;;;21.10;72.40;;;;;;5096631;28;20020;-91
2023/06/24 21:26:07;;;;;;;9.95;5.03;;;21.10;72.50;;;;;;5098588;28;20031;-91
2023/06/24 21:28:33;;;;;;;9.18;4.93;;;21.10;72.60;;;;;;5096835;28;20027;-91
2023/06/24 21:30:59;;;;;;;9.45;5.20;;;21.10;72.80;;;;;;5095190;28;20016;-91
2023/06/24 21:33:24;;;;;;;8.40;4.70;;;21.10;72.90;;;;;;5096443;28;20023;-92
2023/06/24 21:35:50;;;;;;;13.05;4.82;;;20.90;72.80;;;;;;5096948;28;20019;-91
2023/06/24 21:38:16;;;;;;;6.93;4.38;;;21.10;72.90;;;;;;5089870;28;20024;-92
2023/06/24 21:40:41;;;;;;;10.75;5.20;;;21.10;73.00;;;;;;5095597;28;20042;-92
2023/06/24 21:43:07;;;;;;;8.95;4.28;;;21.10;73.20;;;;;;5099036;27;20020;-92
2023/06/24 21:45:33;;;;;;;7.60;4.38;;;21.10;73.20;;;;;;5096605;28;20541;-91
2023/06/24 21:47:58;;;;;;;9.77;4.30;;;21.10;73.30;;;;;;5096129;28;20015;-91
2023/06/24 21:50:24;;;;;;;10.20;4.40;;;21.10;73.40;;;;;;5093609;28;20024;-92
2023/06/24 21:52:50;;;;;;;5.57;4.20;;;21.10;73.40;;;;;;5096123;28;20016;-92
2023/06/24 21:55:16;;;;;;;11.52;5.13;;;21.10;73.50;;;;;;5090935;28;20490;-91
2023/06/24 21:57:43;;;;;;;9.73;4.60;;;21.10;73.50;;;;;;5097588;28;20054;-92
2023/06/24 22:00:17;;;;;;;10.95;4.78;;;21.00;73.60;;;;;;5096202;28;20388;-92
2023/06/24 22:02:44;;;;;;;6.55;4.40;;;21.00;73.70;;;;;;5094979;28;20027;-92
2023/06/24 22:05:09;;;;;;;7.03;4.22;;;21.00;73.80;;;;;;5097539;27;20034;-91
2023/06/24 22:07:35;;;;;;;8.35;4.18;;;21.00;73.90;;;;;;5089422;28;20023;-92
2023/06/24 22:10:01;;;;;;;11.90;5.75;;;21.00;73.90;;;;;;5114973;28;20023;-92
2023/06/24 22:12:26;;;;;;;7.38;5.07;;;21.00;74.00;;;;;;5093457;28;20479;-91
2023/06/24 22:14:52;;;;;;;10.00;4.70;;;21.10;74.10;;;;;;5114611;28;20471;-91
2023/06/24 22:17:18;;;;;;;8.38;5.22;;;21.00;74.10;;;;;;5097005;28;20447;-92
2023/06/24 22:19:43;;;;;;;9.95;5.88;;;21.00;74.20;;;;;;5095954;28;20483;-92
2023/06/24 22:22:09;;;;;;;10.73;5.50;;;21.00;74.10;;;;;;5096317;28;20073;-92
2023/06/24 22:24:34;;;;;;;11.50;6.18;;;21.00;75.00;;;;;;5091208;28;20031;-92
2023/06/24 22:27:00;;;;;;;11.57;5.97;;;21.00;74.30;;;;;;5095774;28;20031;-92
2023/06/24 22:29:26;;;;;;;9.63;5.55;;;21.00;74.40;;;;;;5091786;28;20024;-92
2023/06/24 22:31:51;;;;;;;7.65;4.60;;;21.00;74.50;;;;;;5093152;28;20559;-93
2023/06/24 22:34:17;;;;;;;8.27;5.63;;;21.00;74.50;;;;;;5093794;28;20505;-92
2023/06/24 22:36:43;;;;;;;7.82;4.78;;;21.00;74.50;;;;;;5090108;28;20039;-92
2023/06/24 22:39:08;;;;;;;7.90;4.35;;;21.00;74.60;;;;;;5095956;28;20114;-91
2023/06/24 22:41:34;;;;;;;6.22;4.20;;;21.00;74.60;;;;;;5092502;28;20034;-91
2023/06/24 22:44:00;;;;;;;8.20;4.72;;;21.00;74.80;;;;;;5094223;28;20612;-89
2023/06/24 22:46:25;;;;;;;7.50;5.13;;;21.00;74.80;;;;;;5096032;28;20558;-92
2023/06/24 22:48:51;;;;;;;7.78;5.00;;;21.00;74.80;;;;;;5092016;28;20120;-91
2023/06/24 22:51:17;;;;;;;7.28;4.35;;;21.00;74.80;;;;;;5095374;28;20047;-91
2023/06/24 22:53:45;;;;;;;6.38;3.95;;;21.00;75.60;;;;;;5093566;28;20043;-91
2023/06/24 22:56:10;;;;;;;6.20;4.47;;;20.90;74.70;;;;;;5094847;28;20457;-91
2023/06/24 22:58:36;;;;;;;7.43;4.28;;;21.00;74.80;;;;;;5096194;28;20016;-90
2023/06/24 23:01:03;;;;;;;7.13;4.30;;;21.00;74.70;;;;;;5091841;28;20028;-92
2023/06/24 23:03:29;;;;;;;7.47;4.43;;;21.00;74.70;;;;;;5088538;28;20047;-90
2023/06/24 23:05:55;;;;;;;7.40;4.20;;;21.00;74.70;;;;;;5120641;27;20023;-91
2023/06/24 23:08:21;;;;;;;8.95;4.70;;;20.90;74.70;;;;;;5088993;28;20034;-92
2023/06/24 23:10:47;;;;;;;7.05;4.43;;;20.90;74.70;;;;;;5093282;28;20023;-92
2023/06/24 23:13:13;;;;;;;9.70;5.43;;;20.90;74.80;;;;;;5096637;28;20027;-91
2023/06/24 23:15:40;;;;;;;5.75;4.40;;;20.90;74.90;;;;;;5088882;28;20027;-88
2023/06/24 23:18:05;;;;;;;8.70;4.65;;;20.90;74.90;;;;;;5084693;28;20034;-92
2023/06/24 23:20:31;;;;;;;7.25;4.80;;;20.90;75.00;;;;;;5094758;28;20102;-92
2023/06/24 23:22:57;;;;;;;10.98;5.30;;;20.90;75.00;;;;;;5094198;28;20439;-91
2023/06/24 23:25:23;;;;;;;12.02;5.70;;;20.90;75.00;;;;;;5094193;28;20026;-91